createdAt,value
2023-04-09T00:01:31.596Z,63.17
2023-04-09T00:03:34.581Z,53.27
2023-04-09T00:05:40.303Z,59.50
2023-04-09T00:07:44.467Z,121.17
2023-04-09T00:09:47.498Z,56.80
2023-04-09T00:11:50.407Z,49.80
2023-04-09T00:13:54.501Z,46.43
2023-04-09T00:15:57.275Z,57.03
2023-04-09T00:18:00.183Z,62.63
2023-04-09T00:20:04.076Z,66.20
2023-04-09T00:22:06.852Z,75.30
2023-04-09T00:24:09.626Z,67.93
2023-04-09T00:26:12.397Z,70.10
2023-04-09T00:28:15.833Z,77.30
2023-04-09T00:30:19.970Z,63.80
2023-04-09T00:32:22.728Z,56.73
2023-04-09T00:34:25.531Z,48.67
2023-04-09T00:36:28.312Z,44.73
2023-04-09T00:38:31.092Z,53.77
2023-04-09T00:40:33.985Z,58.40
2023-04-09T00:42:37.373Z,46.57
2023-04-09T00:44:40.203Z,82.80
2023-04-09T00:46:44.345Z,52.77
2023-04-09T00:48:47.102Z,27.80
2023-04-09T00:50:49.890Z,33.83
2023-04-09T00:52:52.862Z,42.80
2023-04-09T00:54:55.713Z,52.47
2023-04-09T00:56:58.546Z,57.47
2023-04-09T00:59:01.390Z,87.27
2023-04-09T01:01:04.322Z,93.63
2023-04-09T01:03:08.621Z,82.67
2023-04-09T01:05:11.732Z,89.63
2023-04-09T01:07:17.130Z,148.13
2023-04-09T01:09:22.841Z,245.97
2023-04-09T01:11:29.878Z,164.87
2023-04-09T01:13:36.327Z,194.33
2023-04-09T01:15:41.938Z,246.20
2023-04-09T01:17:47.390Z,83.50
2023-04-09T01:19:55.501Z,146.37
2023-04-09T01:21:58.270Z,190.07
2023-04-09T01:24:04.006Z,334.20
2023-04-09T01:26:11.674Z,151.30
2023-04-09T01:28:17.683Z,206.63
2023-04-09T01:30:20.563Z,209.93
2023-04-09T01:32:23.880Z,156.03
2023-04-09T01:34:26.652Z,210.90
2023-04-09T01:36:29.499Z,115.80
2023-04-09T01:38:32.281Z,209.80
2023-04-09T01:40:35.063Z,246.63
2023-04-09T01:42:38.067Z,228.37
2023-04-09T01:44:42.331Z,149.97
2023-04-09T01:46:45.110Z,241.77
2023-04-09T01:48:47.929Z,168.57
2023-04-09T01:50:50.823Z,317.43
2023-04-09T01:52:53.629Z,179.17
2023-04-09T01:54:56.397Z,193.80
2023-04-09T01:56:59.228Z,108.70
2023-04-09T01:59:02.011Z,104.93
2023-04-09T02:01:07.680Z,230.03
2023-04-09T02:03:12.504Z,217.60
2023-04-09T02:05:16.507Z,99.53
2023-04-09T02:07:22.965Z,90.87
2023-04-09T02:09:26.005Z,114.93
2023-04-09T02:11:29.998Z,194.10
2023-04-09T02:13:32.798Z,191.47
2023-04-09T02:15:35.993Z,106.37
2023-04-09T02:17:40.202Z,137.33
2023-04-09T02:19:43.330Z,195.73
2023-04-09T02:21:46.875Z,129.90
2023-04-09T02:23:49.668Z,167.63
2023-04-09T02:25:52.511Z,206.73
2023-04-09T02:27:55.379Z,101.77
2023-04-09T02:29:58.166Z,108.60
2023-04-09T02:32:00.992Z,80.17
2023-04-09T02:34:05.433Z,146.27
2023-04-09T02:36:08.254Z,169.73
2023-04-09T02:38:13.712Z,97.97
2023-04-09T02:40:16.531Z,145.10
2023-04-09T02:42:19.327Z,99.37
2023-04-09T02:44:22.080Z,87.23
2023-04-09T02:46:25.005Z,90.47
2023-04-09T02:48:27.817Z,83.30
2023-04-09T02:50:31.922Z,140.60
2023-04-09T02:52:34.714Z,100.30
2023-04-09T02:54:37.485Z,123.90
2023-04-09T02:56:40.311Z,108.93
2023-04-09T02:58:43.107Z,139.50
2023-04-09T03:00:45.978Z,112.27
2023-04-09T03:02:48.836Z,85.17
2023-04-09T03:04:53.032Z,313.33
2023-04-09T03:06:57.278Z,94.70
2023-04-09T03:09:00.043Z,105.87
2023-04-09T03:11:02.855Z,103.30
2023-04-09T03:13:05.879Z,393.13
2023-04-09T03:15:09.238Z,227.03
2023-04-09T03:17:12.015Z,474.43
2023-04-09T03:19:14.779Z,245.97
2023-04-09T03:21:17.564Z,370.53
2023-04-09T03:23:21.650Z,243.90
2023-04-09T03:25:24.429Z,172.63
2023-04-09T03:27:27.235Z,217.00
2023-04-09T03:29:29.989Z,272.97
2023-04-09T03:31:32.871Z,397.77
2023-04-09T03:33:35.725Z,404.10
2023-04-09T03:35:38.528Z,144.10
2023-04-09T03:37:41.531Z,126.87
2023-04-09T03:39:45.682Z,263.47
2023-04-09T03:41:48.649Z,127.93
2023-04-09T03:43:51.406Z,185.77
2023-04-09T03:45:54.166Z,244.87
2023-04-09T03:47:58.011Z,167.00
2023-04-09T03:50:00.982Z,389.60
2023-04-09T03:52:03.802Z,138.43
2023-04-09T03:54:06.639Z,134.03
2023-04-09T03:56:10.774Z,112.40
2023-04-09T03:58:13.537Z,304.07
2023-04-09T04:00:16.482Z,173.40
2023-04-09T04:02:19.429Z,122.37
2023-04-09T04:04:23.771Z,315.93
2023-04-09T04:06:27.295Z,157.70
2023-04-09T04:08:30.095Z,179.83
2023-04-09T04:10:32.863Z,134.10
2023-04-09T04:12:36.990Z,273.03
2023-04-09T04:14:39.745Z,239.20
2023-04-09T04:16:42.712Z,313.63
2023-04-09T04:18:45.694Z,174.40
2023-04-09T04:20:48.442Z,209.60
2023-04-09T04:22:51.229Z,211.73
2023-04-09T04:24:54.030Z,111.37
2023-04-09T04:26:57.048Z,256.83
2023-04-09T04:29:01.154Z,140.57
2023-04-09T04:31:03.916Z,87.23
2023-04-09T04:33:06.708Z,251.10
2023-04-09T04:35:10.191Z,172.40
2023-04-09T04:37:14.813Z,141.30
2023-04-09T04:39:17.565Z,126.47
2023-04-09T04:41:20.806Z,212.27
2023-04-09T04:43:23.594Z,240.73
2023-04-09T04:45:27.749Z,186.10
2023-04-09T04:47:30.629Z,137.90
2023-04-09T04:49:33.399Z,178.27
2023-04-09T04:51:36.160Z,231.50
2023-04-09T04:53:38.958Z,104.60
2023-04-09T04:55:41.718Z,132.03
2023-04-09T04:57:44.522Z,247.13
2023-04-09T04:59:47.279Z,134.77
2023-04-09T05:01:51.441Z,148.13
2023-04-09T05:03:54.367Z,230.53
2023-04-09T05:05:57.176Z,174.03
2023-04-09T05:07:59.960Z,251.73
2023-04-09T05:10:02.728Z,179.03
2023-04-09T05:12:05.696Z,203.90
2023-04-09T05:14:08.457Z,163.90
2023-04-09T05:16:17.400Z,301.87
2023-04-09T05:18:21.713Z,155.00
2023-04-09T05:20:24.556Z,232.03
2023-04-09T05:22:27.424Z,140.07
2023-04-09T05:24:30.176Z,381.13
2023-04-09T05:26:32.953Z,262.87
2023-04-09T05:28:35.770Z,93.57
2023-04-09T05:30:38.666Z,124.83
2023-04-09T05:32:41.573Z,120.30
2023-04-09T05:34:45.704Z,181.90
2023-04-09T05:36:48.602Z,149.60
2023-04-09T05:38:51.626Z,143.90
2023-04-09T05:40:54.669Z,267.03
2023-04-09T05:42:57.463Z,237.40
2023-04-09T05:45:00.255Z,107.37
2023-04-09T05:47:03.217Z,84.10
2023-04-09T05:49:06.196Z,157.93
2023-04-09T05:51:10.616Z,112.23
2023-04-09T05:53:14.668Z,180.93
2023-04-09T05:55:17.505Z,186.20
2023-04-09T05:57:20.293Z,303.47
2023-04-09T05:59:23.574Z,161.40
2023-04-09T06:01:27.119Z,128.80
2023-04-09T06:03:30.152Z,140.70
2023-04-09T06:05:33.166Z,137.13
2023-04-09T06:07:37.278Z,182.53
2023-04-09T06:09:40.039Z,107.93
2023-04-09T06:11:42.807Z,128.93
2023-04-09T06:13:45.607Z,224.77
2023-04-09T06:15:48.658Z,124.30
2023-04-09T06:17:51.550Z,86.00
2023-04-09T06:19:54.336Z,110.37
2023-04-09T06:21:57.106Z,96.73
2023-04-09T06:24:01.235Z,149.73
2023-04-09T06:26:04.020Z,95.13
2023-04-09T06:28:06.816Z,120.73
2023-04-09T06:30:11.036Z,67.33
2023-04-09T06:32:13.810Z,66.77
2023-04-09T06:34:16.569Z,171.60
2023-04-09T06:36:19.330Z,92.47
2023-04-09T06:38:22.123Z,69.77
2023-04-09T06:40:26.231Z,108.73
2023-04-09T06:42:29.009Z,131.80
2023-04-09T06:44:31.795Z,93.13
2023-04-09T06:46:34.581Z,95.73
2023-04-09T06:48:37.486Z,56.77
2023-04-09T06:50:40.266Z,93.03
2023-04-09T06:52:43.074Z,82.50
2023-04-09T06:54:46.460Z,95.33
2023-04-09T06:56:50.657Z,80.17
2023-04-09T06:58:53.443Z,66.43
2023-04-09T07:00:56.316Z,70.80
2023-04-09T07:02:59.568Z,105.20
2023-04-09T07:05:03.228Z,72.93
2023-04-09T07:07:06.075Z,76.40
2023-04-09T07:09:08.854Z,69.97
2023-04-09T07:11:11.622Z,69.17
2023-04-09T07:13:15.832Z,77.47
2023-04-09T07:15:18.601Z,82.23
2023-04-09T07:17:21.378Z,87.67
2023-04-09T07:19:24.542Z,72.23
2023-04-09T07:21:28.310Z,99.63
2023-04-09T07:23:31.340Z,77.93
2023-04-09T07:25:34.181Z,64.00
2023-04-09T07:27:37.286Z,85.77
2023-04-09T07:29:44.786Z,92.87
2023-04-09T07:31:47.700Z,87.30
2023-04-09T07:33:51.228Z,79.63
2023-04-09T07:35:55.530Z,93.33
2023-04-09T07:37:58.819Z,89.40
2023-04-09T07:40:01.731Z,78.63
2023-04-09T07:42:04.866Z,86.03
2023-04-09T07:44:07.651Z,76.27
2023-04-09T07:46:11.879Z,78.37
2023-04-09T07:48:14.696Z,79.07
2023-04-09T07:50:17.463Z,78.63
2023-04-09T07:52:20.393Z,82.50
2023-04-09T07:54:23.205Z,84.70
2023-04-09T07:56:26.020Z,86.47
2023-04-09T07:58:28.803Z,86.67
2023-04-09T08:00:31.598Z,87.47
2023-04-09T08:02:35.911Z,74.00
2023-04-09T08:04:38.896Z,83.63
2023-04-09T08:06:41.843Z,87.43
2023-04-09T08:08:44.753Z,86.20
2023-04-09T08:10:47.921Z,75.27
2023-04-09T08:12:51.165Z,73.70
2023-04-09T08:14:53.940Z,88.33
2023-04-09T08:16:56.707Z,83.67
2023-04-09T08:19:01.054Z,84.67
2023-04-09T08:21:05.971Z,80.23
2023-04-09T08:23:08.785Z,74.27
2023-04-09T08:25:11.580Z,68.53
2023-04-09T08:27:14.321Z,72.67
2023-04-09T08:29:17.071Z,85.00
2023-04-09T08:31:19.852Z,75.70
2023-04-09T08:33:22.600Z,81.87
2023-04-09T08:35:26.686Z,81.97
2023-04-09T08:37:29.638Z,73.80
2023-04-09T08:39:32.454Z,68.93
2023-04-09T08:41:35.189Z,89.83
2023-04-09T08:43:56.472Z,97.70
2023-04-09T08:46:02.878Z,95.63
2023-04-09T08:48:06.277Z,87.13
2023-04-09T08:50:09.781Z,99.20
2023-04-09T08:52:16.254Z,90.30
2023-04-09T08:54:20.160Z,99.40
2023-04-09T08:56:23.772Z,84.77
2023-04-09T08:58:26.666Z,86.03
2023-04-09T09:00:29.509Z,95.07
2023-04-09T09:02:32.456Z,87.30
2023-04-09T09:04:45.120Z,102.10
2023-04-09T09:06:47.862Z,88.93
2023-04-09T09:09:06.129Z,91.00
2023-04-09T09:11:08.866Z,94.10
2023-04-09T09:13:18.665Z,92.70
2023-04-09T09:15:28.704Z,96.90
2023-04-09T09:17:31.657Z,100.10
2023-04-09T09:19:35.187Z,88.93
2023-04-09T09:21:38.654Z,86.17
2023-04-09T09:23:42.368Z,84.17
2023-04-09T09:25:46.711Z,95.20
2023-04-09T09:27:49.494Z,87.50
2023-04-09T09:29:52.278Z,103.70
2023-04-09T09:31:55.674Z,89.27
2023-04-09T09:34:01.106Z,98.37
2023-04-09T09:36:03.991Z,97.90
2023-04-09T09:38:06.836Z,89.07
2023-04-09T09:40:11.119Z,97.50
2023-04-09T09:42:15.342Z,95.83
2023-04-09T09:44:32.160Z,91.33
2023-04-09T09:46:36.642Z,95.33
2023-04-09T09:48:39.721Z,99.33
2023-04-09T09:50:43.094Z,88.07
2023-04-09T09:52:46.515Z,93.63
2023-04-09T09:54:49.727Z,100.50
2023-04-09T09:56:52.875Z,101.43
2023-04-09T09:59:01.466Z,105.73
2023-04-09T10:01:04.273Z,106.20
2023-04-09T10:03:10.594Z,88.20
2023-04-09T10:05:13.398Z,97.67
2023-04-09T10:07:16.179Z,98.70
2023-04-09T10:09:18.963Z,99.30
2023-04-09T10:11:23.448Z,101.27
2023-04-09T10:13:29.689Z,101.27
2023-04-09T10:15:33.915Z,103.63
2023-04-09T10:17:36.789Z,102.97
2023-04-09T10:19:41.248Z,99.47
2023-04-09T10:21:47.633Z,112.87
2023-04-09T10:23:50.872Z,103.47
2023-04-09T10:25:54.088Z,91.93
2023-04-09T10:28:01.064Z,110.40
2023-04-09T10:30:05.324Z,94.27
2023-04-09T10:32:09.478Z,111.63
2023-04-09T10:34:12.577Z,95.37
2023-04-09T10:36:15.544Z,110.30
2023-04-09T10:38:18.385Z,107.70
2023-04-09T10:40:21.710Z,104.03
2023-04-09T10:42:25.666Z,90.10
2023-04-09T10:44:31.728Z,90.47
2023-04-09T10:46:36.305Z,86.60
2023-04-09T10:48:40.449Z,90.70
2023-04-09T10:50:44.190Z,83.33
2023-04-09T10:52:47.070Z,79.37
2023-04-09T10:54:50.504Z,70.60
2023-04-09T10:57:13.639Z,76.07
2023-04-09T10:59:16.459Z,79.97
2023-04-09T11:01:24.018Z,76.87
2023-04-09T11:03:27.833Z,75.47
2023-04-09T11:05:36.389Z,64.10
2023-04-09T11:07:41.441Z,72.73
2023-04-09T11:09:44.258Z,77.13
2023-04-09T11:11:53.077Z,69.70
2023-04-09T11:13:59.796Z,67.93
2023-04-09T11:16:04.117Z,71.07
2023-04-09T11:18:09.616Z,70.83
2023-04-09T11:20:12.547Z,71.63
2023-04-09T11:22:16.674Z,61.83
2023-04-09T11:24:20.018Z,64.07
2023-04-09T11:26:26.581Z,68.40
2023-04-09T11:28:29.366Z,69.10
2023-04-09T11:30:34.372Z,70.43
2023-04-09T11:32:37.189Z,67.90
2023-04-09T11:34:40.006Z,67.70
2023-04-09T11:36:42.760Z,69.00
2023-04-09T11:38:47.538Z,71.93
2023-04-09T11:40:51.258Z,68.13
2023-04-09T11:42:54.808Z,59.10
2023-04-09T11:44:57.574Z,68.03
2023-04-09T11:47:00.350Z,69.40
2023-04-09T11:49:03.209Z,78.93
2023-04-09T11:51:06.488Z,78.90
2023-04-09T11:53:22.042Z,71.83
2023-04-09T11:55:26.828Z,84.13
2023-04-09T11:57:38.271Z,84.43
2023-04-09T11:59:41.095Z,94.67
2023-04-09T12:01:44.152Z,93.63
2023-04-09T12:03:47.315Z,89.50
2023-04-09T12:05:51.178Z,87.40
2023-04-09T12:07:56.769Z,92.83
2023-04-09T12:10:03.868Z,93.63
2023-04-09T12:12:11.179Z,95.20
2023-04-09T12:14:14.109Z,79.00
2023-04-09T12:16:19.979Z,92.10
2023-04-09T12:18:23.284Z,68.83
2023-04-09T12:20:30.096Z,72.73
2023-04-09T12:22:32.851Z,67.33
2023-04-09T12:24:35.830Z,54.83
2023-04-09T12:26:38.599Z,60.83
2023-04-09T12:28:42.705Z,67.90
2023-04-09T12:30:45.821Z,59.63
2023-04-09T12:32:48.681Z,58.00
2023-04-09T12:34:51.511Z,63.50
2023-04-09T12:36:54.268Z,57.77
2023-04-09T12:38:57.045Z,52.90
2023-04-09T12:40:59.908Z,57.90
2023-04-09T12:43:02.930Z,50.93
2023-04-09T12:45:08.572Z,51.87
2023-04-09T12:47:11.328Z,53.73
2023-04-09T12:49:14.506Z,54.70
2023-04-09T12:51:17.521Z,50.30
2023-04-09T12:53:20.471Z,56.07
2023-04-09T12:55:23.266Z,55.00
2023-04-09T12:57:26.033Z,53.00
2023-04-09T12:59:28.829Z,54.50
2023-04-09T13:01:33.015Z,50.53
2023-04-09T13:03:36.215Z,49.20
2023-04-09T13:05:39.388Z,52.80
2023-04-09T13:07:43.508Z,48.83
2023-04-09T13:09:46.561Z,50.17
2023-04-09T13:11:49.326Z,47.20
2023-04-09T13:13:52.310Z,46.07
2023-04-09T13:15:55.446Z,46.70
2023-04-09T13:17:59.613Z,43.50
2023-04-09T13:20:03.052Z,45.87
2023-04-09T13:22:07.876Z,42.53
2023-04-09T13:24:11.033Z,41.17
2023-04-09T13:26:13.799Z,48.00
2023-04-09T13:28:16.943Z,44.40
2023-04-09T13:30:19.960Z,45.60
2023-04-09T13:32:24.139Z,46.90
2023-04-09T13:34:28.365Z,60.63
2023-04-09T13:36:31.430Z,45.83
2023-04-09T13:38:34.229Z,44.43
2023-04-09T13:40:37.031Z,44.20
2023-04-09T13:42:39.798Z,42.90
2023-04-09T13:44:45.150Z,40.97
2023-04-09T13:46:47.999Z,48.00
2023-04-09T13:48:51.171Z,46.50
2023-04-09T13:50:55.439Z,47.03
2023-04-09T13:52:58.275Z,48.90
2023-04-09T13:55:01.209Z,47.60
2023-04-09T13:57:04.125Z,46.63
2023-04-09T13:59:07.028Z,48.90
2023-04-09T14:01:09.909Z,46.10
2023-04-09T14:03:14.232Z,49.63
2023-04-09T14:05:17.672Z,56.33
2023-04-09T14:07:21.799Z,49.90
2023-04-09T14:09:24.638Z,51.10
2023-04-09T14:11:27.435Z,52.57
2023-04-09T14:13:30.353Z,51.53
2023-04-09T14:15:33.417Z,53.70
2023-04-09T14:17:36.197Z,53.07
2023-04-09T14:19:39.168Z,55.83
2023-04-09T14:21:41.999Z,55.77
2023-04-09T14:23:46.141Z,53.47
2023-04-09T14:25:48.917Z,59.13
2023-04-09T14:27:52.084Z,56.17
2023-04-09T14:29:54.867Z,60.10
2023-04-09T14:31:57.673Z,54.90
2023-04-09T14:34:00.449Z,56.27
2023-04-09T14:36:03.282Z,54.20
2023-04-09T14:38:06.078Z,62.63
2023-04-09T14:40:10.902Z,56.67
2023-04-09T14:42:14.337Z,59.53
2023-04-09T14:44:17.129Z,62.73
2023-04-09T14:46:20.305Z,57.90
2023-04-09T14:48:23.136Z,48.57
2023-04-09T14:50:26.388Z,51.63
2023-04-09T14:52:30.408Z,49.07
2023-04-09T14:54:34.079Z,46.17
2023-04-09T14:56:38.205Z,50.77
2023-04-09T14:58:40.963Z,51.70
2023-04-09T15:00:44.842Z,47.73
2023-04-09T15:02:48.189Z,52.13
2023-04-09T15:04:51.276Z,46.93
2023-04-09T15:06:54.099Z,52.20
2023-04-09T15:08:56.866Z,42.97
2023-04-09T15:10:59.662Z,47.60
2023-04-09T15:13:03.793Z,49.80
2023-04-09T15:15:08.012Z,52.97
2023-04-09T15:17:10.774Z,48.53
2023-04-09T15:19:13.560Z,43.90
2023-04-09T15:21:16.522Z,42.17
2023-04-09T15:23:19.303Z,49.10
2023-04-09T15:25:22.114Z,51.53
2023-04-09T15:27:24.898Z,48.87
2023-04-09T15:29:29.102Z,48.20
2023-04-09T15:31:32.447Z,47.40
2023-04-09T15:33:35.436Z,48.20
2023-04-09T15:35:38.594Z,42.03
2023-04-09T15:37:41.683Z,46.77
2023-04-09T15:39:44.470Z,41.80
2023-04-09T15:41:47.264Z,37.40
2023-04-09T15:43:50.179Z,44.47
2023-04-09T15:45:54.338Z,43.37
2023-04-09T15:47:57.156Z,42.67
2023-04-09T15:50:00.090Z,36.43
2023-04-09T15:52:02.849Z,38.40
2023-04-09T15:54:05.618Z,39.97
2023-04-09T15:56:10.351Z,38.13
2023-04-09T15:58:14.748Z,44.17
2023-04-09T16:00:17.612Z,41.63
2023-04-09T16:02:23.439Z,42.00
2023-04-09T16:04:27.971Z,36.87
2023-04-09T16:06:30.895Z,37.23
2023-04-09T16:08:33.737Z,35.90
2023-04-09T16:10:36.524Z,38.90
2023-04-09T16:12:39.334Z,36.47
2023-04-09T16:14:42.306Z,39.97
2023-04-09T16:16:47.603Z,40.00
2023-04-09T16:18:52.780Z,37.50
2023-04-09T16:20:55.904Z,34.63
2023-04-09T16:22:58.693Z,42.47
2023-04-09T16:25:01.477Z,37.67
2023-04-09T16:27:04.346Z,39.07
2023-04-09T16:29:07.106Z,40.50
2023-04-09T16:31:09.880Z,36.93
2023-04-09T16:33:13.391Z,34.67
2023-04-09T16:35:17.536Z,38.53
2023-04-09T16:37:20.295Z,37.87
2023-04-09T16:39:23.078Z,36.57
2023-04-09T16:41:26.246Z,36.83
2023-04-09T16:43:30.638Z,34.50
2023-04-09T16:45:33.453Z,38.70
2023-04-09T16:47:36.279Z,40.47
2023-04-09T16:49:39.059Z,41.53
2023-04-09T16:51:43.315Z,34.50
2023-04-09T16:53:46.139Z,41.37
2023-04-09T16:55:49.090Z,34.23
2023-04-09T16:57:51.858Z,35.93
2023-04-09T16:59:54.726Z,38.43
2023-04-09T17:01:57.699Z,37.77
2023-04-09T17:04:02.026Z,37.10
2023-04-09T17:06:05.359Z,46.73
2023-04-09T17:08:09.469Z,34.70
2023-04-09T17:10:12.513Z,38.60
2023-04-09T17:12:15.311Z,41.53
2023-04-09T17:14:18.100Z,39.43
2023-04-09T17:16:21.192Z,37.57
2023-04-09T17:18:24.031Z,35.70
2023-04-09T17:20:26.914Z,35.80
2023-04-09T17:22:29.693Z,38.53
2023-04-09T17:24:36.691Z,37.53
2023-04-09T17:26:39.469Z,31.63
2023-04-09T17:28:42.812Z,36.93
2023-04-09T17:30:45.632Z,38.93
2023-04-09T17:32:48.491Z,33.70
2023-04-09T17:34:51.357Z,40.27
2023-04-09T17:36:57.118Z,40.10
2023-04-09T17:38:59.915Z,35.63
2023-04-09T17:41:05.771Z,34.60
2023-04-09T17:43:10.191Z,33.60
2023-04-09T17:45:13.582Z,32.23
2023-04-09T17:47:17.021Z,34.53
2023-04-09T17:49:19.789Z,39.70
2023-04-09T17:51:22.604Z,44.53
2023-04-09T17:53:25.493Z,36.30
2023-04-09T17:55:28.361Z,36.43
2023-04-09T17:57:33.086Z,51.77
2023-04-09T17:59:36.436Z,52.23
2023-04-09T18:01:39.320Z,41.87
2023-04-09T18:03:43.235Z,40.47
2023-04-09T18:05:46.399Z,44.47
2023-04-09T18:07:49.292Z,49.10
2023-04-09T18:09:52.067Z,40.50
2023-04-09T18:11:56.478Z,42.03
2023-04-09T18:14:00.918Z,46.37
2023-04-09T18:16:03.763Z,44.53
2023-04-09T18:18:06.710Z,45.50
2023-04-09T18:20:10.345Z,53.27
2023-04-09T18:22:13.473Z,49.17
2023-04-09T18:24:16.358Z,44.60
2023-04-09T18:26:19.125Z,47.50
2023-04-09T18:28:21.929Z,54.40
2023-04-09T18:30:26.718Z,47.60
2023-04-09T18:32:29.516Z,50.40
2023-04-09T18:34:32.321Z,60.87
2023-04-09T18:36:35.524Z,59.90
2023-04-09T18:38:38.414Z,75.53
2023-04-09T18:40:42.242Z,78.27
2023-04-09T18:42:45.005Z,81.83
2023-04-09T18:44:47.747Z,74.23
2023-04-09T18:46:52.264Z,63.43
2023-04-09T18:48:55.450Z,55.80
2023-04-09T18:50:59.013Z,54.03
2023-04-09T18:53:03.352Z,51.20
2023-04-09T18:55:06.808Z,49.30
2023-04-09T18:57:09.593Z,45.70
2023-04-09T18:59:12.423Z,49.17
2023-04-09T19:01:17.310Z,42.67
2023-04-09T19:03:21.980Z,52.10
2023-04-09T19:05:25.003Z,45.30
2023-04-09T19:07:27.827Z,48.63
2023-04-09T19:09:30.658Z,46.20
2023-04-09T19:11:33.434Z,44.27
2023-04-09T19:13:36.314Z,47.37
2023-04-09T19:15:39.197Z,44.30
2023-04-09T19:17:42.002Z,47.00
2023-04-09T19:19:46.121Z,48.57
2023-04-09T19:21:48.950Z,51.87
2023-04-09T19:23:51.730Z,52.20
2023-04-09T19:25:55.227Z,43.40
2023-04-09T19:27:58.092Z,42.60
2023-04-09T19:30:01.121Z,50.23
2023-04-09T19:32:03.968Z,50.60
2023-04-09T19:34:07.034Z,54.00
2023-04-09T19:36:12.923Z,45.73
2023-04-09T19:38:16.033Z,43.40
2023-04-09T19:40:19.100Z,43.13
2023-04-09T19:42:21.906Z,45.50
2023-04-09T19:44:24.747Z,39.47
2023-04-09T19:46:27.552Z,26.73
2023-04-09T19:48:30.619Z,31.30
2023-04-09T19:50:35.673Z,32.80
2023-04-09T19:52:41.071Z,34.20
2023-04-09T19:54:43.827Z,33.20
2023-04-09T19:56:46.629Z,29.87
2023-04-09T19:58:49.441Z,32.40
2023-04-09T20:00:52.276Z,25.80
2023-04-09T20:02:55.359Z,31.63
2023-04-09T20:04:58.308Z,33.87
2023-04-09T20:07:01.322Z,32.27
2023-04-09T20:09:05.785Z,21.33
2023-04-09T20:11:08.578Z,26.73
2023-04-09T20:13:11.372Z,29.07
2023-04-09T20:15:14.185Z,28.27
2023-04-09T20:17:19.798Z,35.10
2023-04-09T20:19:22.605Z,31.27
2023-04-09T20:21:25.493Z,31.50
2023-04-09T20:23:28.259Z,29.40
2023-04-09T20:25:34.955Z,31.63
2023-04-09T20:27:38.522Z,36.30
2023-04-09T20:29:41.293Z,33.10
2023-04-09T20:31:44.272Z,30.90
2023-04-09T20:33:47.078Z,32.60
2023-04-09T20:35:50.397Z,29.93
2023-04-09T20:37:54.732Z,31.53
2023-04-09T20:39:58.756Z,27.63
2023-04-09T20:42:02.876Z,25.90
2023-04-09T20:44:05.883Z,31.80
2023-04-09T20:46:09.754Z,27.00
2023-04-09T20:48:12.933Z,33.80
2023-04-09T20:50:16.472Z,37.43
2023-04-09T20:52:19.276Z,40.07
2023-04-09T20:54:23.091Z,37.10
2023-04-09T20:56:29.259Z,38.90
2023-04-09T20:58:33.417Z,39.07
2023-04-09T21:00:36.188Z,38.30
2023-04-09T21:02:40.418Z,37.87
2023-04-09T21:04:43.297Z,42.00
2023-04-09T21:06:46.082Z,39.20
2023-04-09T21:08:48.910Z,32.43
2023-04-09T21:10:51.668Z,33.83
2023-04-09T21:12:54.448Z,40.97
2023-04-09T21:14:58.572Z,36.07
2023-04-09T21:17:01.396Z,36.67
2023-04-09T21:19:07.057Z,38.53
2023-04-09T21:21:10.266Z,41.10
2023-04-09T21:23:13.160Z,38.53
2023-04-09T21:25:16.026Z,39.50
2023-04-09T21:27:18.797Z,37.80
2023-04-09T21:29:21.632Z,38.13
2023-04-09T21:31:25.957Z,42.37
2023-04-09T21:33:30.020Z,40.10
2023-04-09T21:35:33.102Z,39.47
2023-04-09T21:37:37.494Z,38.13
2023-04-09T21:39:40.322Z,31.33
2023-04-09T21:41:43.090Z,33.13
2023-04-09T21:43:45.866Z,34.00
2023-04-09T21:45:48.713Z,36.13
2023-04-09T21:47:53.450Z,33.53
2023-04-09T21:49:56.894Z,41.83
2023-04-09T21:52:00.615Z,38.17
2023-04-09T21:54:04.913Z,33.83
2023-04-09T21:56:08.476Z,33.73
2023-04-09T21:58:11.944Z,38.60
2023-04-09T22:00:16.248Z,36.17
2023-04-09T22:02:19.199Z,44.43
2023-04-09T22:04:23.423Z,35.33
2023-04-09T22:06:27.105Z,36.20
2023-04-09T22:08:30.450Z,44.90
2023-04-09T22:10:33.634Z,35.03
2023-04-09T22:12:37.215Z,44.23
2023-04-09T22:14:41.697Z,35.00
2023-04-09T22:16:44.661Z,39.00
2023-04-09T22:18:47.440Z,35.00
2023-04-09T22:20:51.545Z,41.47
2023-04-09T22:22:54.540Z,43.90
2023-04-09T22:24:57.302Z,34.80
2023-04-09T22:27:01.448Z,28.97
2023-04-09T22:29:06.735Z,34.07
2023-04-09T22:31:09.815Z,33.40
2023-04-09T22:33:12.603Z,37.60
2023-04-09T22:35:18.067Z,45.10
2023-04-09T22:37:22.174Z,49.70
2023-04-09T22:39:25.007Z,41.50
2023-04-09T22:41:27.754Z,64.13
2023-04-09T22:43:30.645Z,284.37
2023-04-09T22:45:33.411Z,259.47
2023-04-09T22:47:36.245Z,171.53
2023-04-09T22:49:39.602Z,54.80
2023-04-09T22:51:42.507Z,80.30
2023-04-09T22:53:47.411Z,72.93
2023-04-09T22:55:51.510Z,75.27
2023-04-09T22:57:54.969Z,59.60
2023-04-09T22:59:57.807Z,54.53
2023-04-09T23:02:00.667Z,64.23
2023-04-09T23:04:03.527Z,60.47
2023-04-09T23:06:06.818Z,57.20
2023-04-09T23:08:09.586Z,60.83
2023-04-09T23:10:16.144Z,50.00
2023-04-09T23:12:18.918Z,48.97
2023-04-09T23:14:21.674Z,45.63
2023-04-09T23:16:24.513Z,51.00
2023-04-09T23:18:27.425Z,62.57
2023-04-09T23:20:30.770Z,56.90
2023-04-09T23:22:33.558Z,52.97
2023-04-09T23:24:36.320Z,48.93
2023-04-09T23:26:40.463Z,55.33
2023-04-09T23:28:43.281Z,50.00
2023-04-09T23:30:46.431Z,43.80
2023-04-09T23:32:49.310Z,44.23
2023-04-09T23:34:52.250Z,44.50
2023-04-09T23:36:54.993Z,43.67
2023-04-09T23:38:57.766Z,44.70
2023-04-09T23:41:00.507Z,41.87
2023-04-09T23:43:04.698Z,42.50
2023-04-09T23:45:08.618Z,44.60
2023-04-09T23:47:12.008Z,44.37
2023-04-09T23:49:16.087Z,44.67
2023-04-09T23:51:19.188Z,48.90
2023-04-09T23:53:22.262Z,44.53
2023-04-09T23:55:25.179Z,49.43
2023-04-09T23:57:28.636Z,53.43
2023-04-09T23:59:35.833Z,47.40
